Drumchapel, United Kingdom
Current Conditions -  °F | °C
As of 2:20 PM on Thursday 18 Dec 2014 (Local Time) from EGPF Reporting Station
Light Rain Light Rain  
Wind Chill: 44°   Ceiling: 900
Heat Index: 48°   Visibility: 4mi
Dew Point: 45°   Wind: 10mph
Humidity: 87%   Direction: 260°W
Pressure: 29.38"   Gusts: NA
Location:  55.89°N, 4.33°W
Report Text: EGPF 181420Z AUTO 26009KT 6000 -RA OVC009 09/07 Q0995
Loading
Personal Weather Stations






























Interactive Weather Map New forecast layout! Learn more

10-Day Weather Forecast

Advertisements
Track Severe Weather on mobile